createdAt,value
2023-05-24T04:00:48.475Z,17.10
2023-05-24T04:03:51.315Z,17.06
2023-05-24T04:06:53.982Z,17.08
2023-05-24T04:09:56.547Z,17.06
2023-05-24T04:12:58.886Z,17.00
2023-05-24T04:16:01.954Z,17.04
2023-05-24T04:19:04.358Z,16.99
2023-05-24T04:22:06.907Z,17.03
2023-05-24T04:25:11.873Z,17.09
2023-05-24T04:28:15.322Z,17.25
2023-05-24T04:31:17.584Z,17.39
2023-05-24T04:34:22.360Z,17.36
2023-05-24T04:37:25.631Z,17.47
2023-05-24T04:40:28.405Z,17.48
2023-05-24T04:43:30.677Z,17.50
2023-05-24T04:46:36.095Z,17.60
2023-05-24T04:49:39.619Z,17.73
2023-05-24T04:52:42.111Z,17.78
2023-05-24T04:55:44.331Z,17.86
2023-05-24T04:58:47.608Z,17.88
2023-05-24T05:01:49.939Z,17.95
2023-05-24T05:04:53.139Z,18.09
2023-05-24T05:07:55.349Z,18.06
2023-05-24T05:10:57.904Z,18.00
2023-05-24T05:14:00.092Z,18.00
2023-05-24T05:17:02.541Z,18.04
2023-05-24T05:20:06.034Z,18.13
2023-05-24T05:23:09.040Z,18.08
2023-05-24T05:26:11.548Z,17.95
2023-05-24T05:29:13.996Z,17.89
2023-05-24T05:32:16.277Z,17.98
2023-05-24T05:35:18.696Z,17.95
2023-05-24T05:38:20.934Z,17.99
2023-05-24T05:41:23.421Z,18.00
2023-05-24T05:44:25.715Z,18.12
2023-05-24T05:47:28.240Z,18.25
2023-05-24T05:50:30.420Z,18.36
2023-05-24T05:53:36.169Z,18.42
2023-05-24T05:56:44.811Z,18.50
2023-05-24T05:59:47.353Z,18.59
2023-05-24T06:02:49.661Z,18.67
2023-05-24T06:05:52.357Z,18.85
2023-05-24T06:08:54.579Z,18.89
2023-05-24T06:11:57.058Z,18.88
2023-05-24T06:14:59.572Z,19.05
2023-05-24T06:18:02.370Z,19.21
2023-05-24T06:21:04.634Z,18.99
2023-05-24T06:24:09.701Z,19.03
2023-05-24T06:27:11.899Z,18.99
2023-05-24T06:30:14.605Z,18.98
2023-05-24T06:33:17.396Z,18.84
2023-05-24T06:36:19.846Z,18.74
2023-05-24T06:39:22.007Z,18.58
2023-05-24T06:42:24.438Z,18.66
2023-05-24T06:45:26.713Z,18.80
2023-05-24T06:48:29.246Z,18.92
2023-05-24T06:51:33.794Z,18.90
2023-05-24T06:54:36.341Z,19.09
2023-05-24T06:57:38.767Z,18.96
2023-05-24T07:00:43.026Z,19.12
2023-05-24T07:03:45.409Z,19.26
2023-05-24T07:06:48.031Z,19.33
2023-05-24T07:09:50.334Z,19.37
2023-05-24T07:12:52.767Z,19.53
2023-05-24T07:15:54.973Z,19.50
2023-05-24T07:18:58.344Z,19.47
2023-05-24T07:22:00.606Z,19.72
2023-05-24T07:25:04.560Z,20.01
2023-05-24T07:28:07.062Z,20.30
2023-05-24T07:31:10.111Z,20.30
2023-05-24T07:34:12.305Z,20.38
2023-05-24T07:37:14.799Z,20.55
2023-05-24T07:40:17.386Z,20.63
2023-05-24T07:43:19.994Z,20.81
2023-05-24T07:46:22.359Z,20.93
2023-05-24T07:49:24.819Z,21.03
2023-05-24T07:52:30.558Z,21.11
2023-05-24T07:55:33.806Z,21.27
2023-05-24T07:58:36.097Z,21.36
2023-05-24T08:01:39.077Z,21.51
2023-05-24T08:04:48.195Z,21.42
2023-05-24T08:07:50.417Z,21.50
2023-05-24T08:10:54.370Z,21.50
2023-05-24T08:13:56.832Z,21.44
2023-05-24T08:17:00.942Z,21.47
2023-05-24T08:20:06.611Z,21.62
2023-05-24T08:23:09.156Z,21.64
2023-05-24T08:26:11.408Z,21.74
2023-05-24T08:29:14.013Z,21.85
2023-05-24T08:32:16.332Z,21.86
2023-05-24T08:35:21.572Z,21.84
2023-05-24T08:38:24.364Z,22.05
2023-05-24T08:41:27.552Z,21.92
2023-05-24T08:44:31.776Z,21.56
2023-05-24T08:47:35.181Z,21.66
2023-05-24T08:50:37.481Z,21.93
2023-05-24T08:53:41.970Z,22.04
2023-05-24T08:56:48.182Z,21.96
2023-05-24T08:59:51.041Z,21.70
2023-05-24T09:02:54.706Z,21.67
2023-05-24T09:06:00.496Z,21.46
2023-05-24T09:09:03.929Z,21.03
2023-05-24T09:12:09.293Z,21.09
2023-05-24T09:15:12.201Z,21.21
2023-05-24T09:18:15.285Z,21.22
2023-05-24T09:21:19.604Z,21.33
2023-05-24T09:24:23.332Z,21.32
2023-05-24T09:27:25.689Z,21.30
2023-05-24T09:30:29.618Z,21.53
2023-05-24T09:33:33.574Z,21.60
2023-05-24T09:36:36.828Z,21.66
2023-05-24T09:39:40.729Z,21.60
2023-05-24T09:42:43.115Z,21.53
2023-05-24T09:45:46.828Z,21.63
2023-05-24T09:48:57.662Z,21.44
2023-05-24T09:51:59.931Z,21.51
2023-05-24T09:55:20.669Z,21.74
2023-05-24T09:58:23.030Z,21.93
2023-05-24T10:01:26.803Z,22.11
2023-05-24T10:04:34.055Z,22.17
2023-05-24T10:07:36.235Z,22.51
2023-05-24T10:10:38.692Z,22.50
2023-05-24T10:13:42.118Z,22.43
2023-05-24T10:16:44.699Z,21.96
2023-05-24T10:19:47.040Z,22.10
2023-05-24T10:22:55.600Z,22.53
2023-05-24T10:26:08.627Z,22.35
2023-05-24T10:29:24.500Z,22.39
2023-05-24T10:32:31.588Z,22.65
2023-05-24T10:35:38.009Z,22.92
2023-05-24T10:38:52.709Z,23.10
2023-05-24T10:42:02.846Z,23.02
2023-05-24T10:45:23.256Z,22.99
2023-05-24T10:48:28.597Z,23.06
2023-05-24T10:51:38.516Z,22.92
2023-05-24T10:54:49.649Z,23.09
2023-05-24T10:58:05.920Z,23.19
2023-05-24T11:01:13.872Z,23.59
2023-05-24T11:04:18.205Z,23.90
2023-05-24T11:07:20.800Z,24.10
2023-05-24T11:10:31.627Z,24.42
2023-05-24T11:13:34.153Z,24.88
2023-05-24T11:16:39.579Z,26.02
2023-05-24T11:19:52.197Z,25.68
2023-05-24T11:22:54.748Z,25.38
2023-05-24T11:25:57.365Z,26.22
2023-05-24T11:29:04.182Z,27.47
2023-05-24T11:35:34.326Z,28.33
2023-05-24T11:38:37.416Z,28.11
2023-05-24T11:41:40.458Z,28.51
2023-05-24T11:44:42.904Z,28.72
2023-05-24T11:47:45.177Z,27.21
2023-05-24T11:50:50.373Z,26.44
2023-05-24T11:53:54.972Z,25.97
2023-05-24T11:56:58.099Z,25.57
2023-05-24T12:00:00.403Z,25.05
2023-05-24T12:03:07.395Z,24.29
2023-05-24T12:06:10.027Z,24.69
2023-05-24T12:09:16.801Z,25.48
2023-05-24T12:12:24.326Z,25.82
2023-05-24T12:15:29.433Z,25.53
2023-05-24T12:18:32.468Z,25.38
2023-05-24T12:21:35.269Z,25.55
2023-05-24T12:24:38.202Z,25.96
2023-05-24T12:27:47.674Z,26.69
2023-05-24T12:30:50.142Z,26.09
2023-05-24T12:33:54.285Z,26.02
2023-05-24T12:36:58.376Z,26.32
2023-05-24T12:40:01.545Z,25.95
2023-05-24T12:43:05.007Z,25.46
2023-05-24T12:46:07.689Z,24.59
2023-05-24T12:49:10.382Z,24.08
2023-05-24T12:52:13.136Z,23.93
2023-05-24T12:55:15.652Z,23.80
2023-05-24T12:58:19.846Z,24.24
2023-05-24T13:01:22.715Z,24.40
2023-05-24T13:04:30.394Z,24.59
2023-05-24T13:07:32.889Z,24.12
2023-05-24T13:10:35.305Z,24.02
2023-05-24T13:13:38.307Z,24.22
2023-05-24T13:16:40.574Z,24.09
2023-05-24T13:19:43.434Z,24.00
2023-05-24T13:22:45.573Z,23.83
2023-05-24T13:33:02.027Z,24.20
2023-05-24T13:36:04.488Z,24.58
2023-05-24T13:42:15.119Z,24.82
2023-05-24T13:45:17.736Z,24.74
2023-05-24T13:48:19.908Z,24.83
2023-05-24T13:51:23.537Z,24.75
2023-05-24T13:54:26.434Z,24.21
2023-05-24T13:57:43.087Z,24.25
2023-05-24T14:00:51.239Z,24.44
2023-05-24T14:03:54.123Z,24.55
2023-05-24T14:06:56.519Z,24.52
2023-05-24T14:09:59.015Z,24.54
2023-05-24T14:13:20.666Z,24.57
2023-05-24T14:16:24.504Z,24.69
2023-05-24T14:19:27.012Z,24.51
2023-05-24T14:22:29.578Z,24.16
2023-05-24T14:25:32.102Z,24.20
2023-05-24T14:28:34.543Z,24.42
2023-05-24T14:31:42.177Z,24.68
2023-05-24T14:34:44.718Z,24.78
2023-05-24T14:37:46.907Z,24.89
2023-05-24T14:40:49.498Z,24.11
2023-05-24T14:43:52.070Z,24.10
2023-05-24T14:46:55.628Z,24.21
2023-05-24T14:49:58.120Z,24.35
2023-05-24T14:53:01.078Z,24.59
2023-05-24T14:56:04.973Z,24.85
2023-05-24T14:59:07.528Z,25.22
2023-05-24T15:02:09.776Z,25.45
2023-05-24T15:05:12.209Z,25.53
2023-05-24T15:08:14.407Z,25.24
2023-05-24T15:11:17.558Z,24.70
2023-05-24T15:14:19.696Z,24.91
2023-05-24T15:17:22.561Z,24.43
2023-05-24T15:20:26.077Z,24.11
2023-05-24T15:23:28.742Z,24.33
2023-05-24T15:26:31.355Z,24.46
